Meteo Giornale » Osservazioni meteo Francia » Nizza
ore: 17:00 - Osservazioni Meteo Nizza
Lat. 43° 39' N Lon. 7° 12' E Alt. 4 metri s.l.m.
28 °C
Poco Nuvoloso
Temp. 24 Ore
22 °C
29 °C
Sud
9.3 Km/h
Dew point 22 °C
Umidità 69 %
Visibilità 10 Km
Il sole sorge alle ore 06:56
Il sole tramonta alle ore 20:05
| Data e Ora | Cielo e Fenomeni | T °C | DP °C | Um. % | Pres. hPa | Vis. km | Vento km/h | |
|---|---|---|---|---|---|---|---|---|
| Oggi h: 17:00 | Poco Nuvoloso | 28 | 22 | 69 | 1017 | 10 | S 9.3 | |
| Oggi h: 16:30 | Poco Nuvoloso | 28 | 22 | 69 | 1017 | 10 | S/SE 11.1 | |
| Oggi h: 16:00 | Poco Nuvoloso | 29 | 22 | 66 | 1018 | 10 | S 11.1 | |
| Oggi h: 15:30 | Poco Nuvoloso | 28 | 22 | 69 | 1018 | 10 | S 11.1 | |
| Oggi h: 15:00 | Poco Nuvoloso | 28 | 22 | 69 | 1018 | 10 | S 11.1 | |
| Oggi h: 14:30 | Poco Nuvoloso | 28 | 22 | 69 | 1018 | 10 | S 13 | |
| Oggi h: 14:00 | Poco Nuvoloso | 28 | 22 | 69 | 1018 | 10 | S/SE 13 | |
| Oggi h: 13:30 | Poco Nuvoloso | 28 | 22 | 69 | 1019 | 10 | S/SE 11.1 | |
| Oggi h: 13:00 | Nuvoloso | 28 | 22 | 69 | 1019 | 10 | SE 11.1 | |
| Oggi h: 12:30 | Nuvoloso | 28 | 21 | 65 | 1019 | 10 | SE 7.4 | |
| Oggi h: 12:00 | Nuvoloso | 28 | 21 | 65 | 1019 | 10 | S/SE 9.3 | |
| Oggi h: 11:30 | Nuvoloso | 28 | 21 | 65 | 1019 | 10 | S/SE 7.4 | |
| Oggi h: 11:00 | Nuvoloso | 28 | 20 | 61 | 1019 | 10 | N 5.5 | |
| Oggi h: 10:30 | Nuvoloso | 28 | 18 | 54 | 1019 | 10 | O/NO 7.4 | |
| Oggi h: 10:00 | Nuvoloso | 27 | 14 | 44 | 1018 | 10 | NO 13 | |
| Oggi h: 09:30 | Poco Nuvoloso | 25 | 13 | 47 | 1018 | 10 | N/NO 18.5 | |
| Oggi h: 09:00 | Poco Nuvoloso | 24 | 14 | 53 | 1018 | 10 | N/NO 20.3 | |
| Oggi h: 08:30 | Poco Nuvoloso | 23 | 14 | 56 | 1018 | 10 | N/NO 18.5 | |
| Oggi h: 08:00 | Sereno | 23 | 14 | 56 | 1018 | 10 | N/NO 20.3 | |
| Oggi h: 07:30 | Sereno | 22 | 15 | 64 | 1018 | 10 | N/NO 14.8 | |
| Oggi h: 07:00 | Sereno | 22 | 15 | 64 | 1018 | 10 | N/NO 16.7 | |
| Oggi h: 06:30 | Sereno | 22 | 15 | 64 | 1018 | 10 | N/NO 16.7 | |
| Oggi h: 06:00 | Sereno | 22 | 16 | 68 | 1018 | 10 | N/NO 14.8 | |
| Oggi h: 05:30 | Sereno | 23 | 16 | 64 | 1018 | 10 | N/NO 18.5 | |
| Oggi h: 05:00 | Sereno | 23 | 16 | 64 | 1018 | 10 | N/NO 18.5 | |
| Oggi h: 04:30 | Poco Nuvoloso | 23 | 16 | 64 | 1018 | 10 | N/NO 13 | |
| Oggi h: 04:00 | Sereno | 23 | 16 | 64 | 1018 | 10 | N/NO 14.8 | |
| Oggi h: 03:30 | Sereno | 24 | 17 | 64 | 1018 | 10 | N/NO 11.1 | |
| Oggi h: 03:00 | Sereno | 24 | 17 | 64 | 1018 | 10 | N/NO 9.3 | |
| Oggi h: 02:30 | Sereno | 24 | 17 | 64 | 1018 | 10 | N/NO 11.1 | |
| Oggi h: 02:00 | Sereno | 24 | 17 | 64 | 1018 | 10 | N/NO 11.1 | |
| Oggi h: 01:30 | Sereno | 24 | 17 | 64 | 1018 | 10 | N/NO 13 | |
| Oggi h: 01:00 | Sereno | 24 | 17 | 64 | 1018 | 10 | N/NO 11.1 | |
| Oggi h: 00:30 | Sereno | 25 | 18 | 65 | 1018 | 10 | N/NO 13 | |
| Oggi h: 00:00 | Sereno | 25 | 18 | 65 | 1017 | 10 | N/NO 11.1 | |
| Ieri h: 23:30 | Sereno | 25 | 19 | 69 | 1017 | 10 | NO 14.8 | |
| Ieri h: 23:00 | Sereno | 25 | 19 | 69 | 1017 | 10 | NO 13 | |
| Ieri h: 22:30 | Sereno | 26 | 20 | 69 | 1017 | 10 | NO 11.1 | |
| Ieri h: 22:00 | Sereno | 26 | 20 | 69 | 1017 | 10 | N 5.5 | |
| Ieri h: 21:30 | Sereno | 26 | 22 | 78 | 1017 | 10 | N 5.5 | |
| Ieri h: 21:00 | Sereno | 27 | 21 | 69 | 1017 | 10 | N 3.7 | |
| Ieri h: 20:30 | Sereno | 27 | 21 | 69 | 1017 | 10 | N 5.5 | |
| Ieri h: 20:00 | Sereno | 27 | 21 | 69 | 1017 | 10 | N 3.7 | |
| Ieri h: 19:30 | Sereno | 27 | 21 | 69 | 1017 | 10 | S/SO 7.4 | |
| Ieri h: 19:00 | Sereno | 27 | 21 | 69 | 1017 | 10 | S/SO 7.4 | |
| Ieri h: 18:30 | Sereno | 28 | 21 | 65 | 1017 | 10 | N 5.5 | |
| Ieri h: 18:00 | Sereno | 28 | 21 | 65 | 1017 | 10 | E/SE 7.4 | |



